KMTP/MTP METAR and TAF weather

Enter ICAO airport designator
Station Type Date Time Source
KMTP METAR 2020/07/05 01:54 UTC NOAA

KMTP 050154Z AUTO 00000KT 21/19 A2996 RMK AO1 SLP144 T02060194


Station Type Date Time Source
KMTP Decoded METAR 2020/07/05 01:54 UTC NOAA

MONTAUK AIRPORT, NY, United States (KMTP) 41-04N 071-55W 2M
Jul 04, 2020 - 09:54 PM EDT / 2020.07.05 0154 UTC
Wind: Calm:0
Temperature: 69.1 F (20.6 C)
Dew Point: 66.9 F (19.4 C)
Relative Humidity: 92%
Pressure (altimeter): 29.96 in. Hg (1014 hPa)
ob: KMTP 050154Z AUTO 00000KT 21/19 A2996 RMK AO1 SLP144 T02060194
cycle: 2

Station Type Date Time Source
KMTP TAF UTC NOAA

Error!

Example: see airport list